1865 Hurricane NOT_NAMED (1865297N28280)


IBTrACS version v04r00. Visit IBTrACS website for data access.
Please direct all questions to the IBTrACS Q and A forum

Storm track - Intensity - Wind Radii - Intensity Data - Source Data - All data

Summary Information

Storm ID 1865297N28280
Start Oct 24 06Z
Landfall Oct 29 09Z
Max Intensity 90 kt (Oct 24 09Z), 972 mb (Oct 29 12Z)
End Oct 30 12Z
ATCF IDs
Track status Best track data.
Spur track This storm is a spur track associated with the main storm: 1865287N11303

Storm track plot

Map of storm track

Intensity plots

Map of storm track

Radial wind information

No radial wind information for this storm


Position and Intensity Table

BASIN ISO_TIME_________ NATURE LAT LON MLC WIND MLC PRES
degrees north degrees east kts mb
NA 1865-10-24 06:00:00 TS 28.10 -79.80 90
NA 09:00:00 TS 28.45 -79.37 90
NA 12:00:00 TS 28.80 -78.90 90
NA 15:00:00 TS 29.26 -78.43 90
NA 18:00:00 TS 29.70 -77.90 90
NA 21:00:00 TS 30.03 -77.31 90
NA 1865-10-25 00:00:00 TS 30.30 -76.60 90
NA 03:00:00 TS 30.53 -75.77 90
NA 06:00:00 TS 30.80 -74.80 90
NA 09:00:00 TS 31.22 -73.72 90
NA 12:00:00 TS 31.70 -72.60 90
NA 15:00:00 TS 32.19 -71.53 90
NA 18:00:00 TS 32.60 -70.50 90
NA 21:00:00 TS 32.83 -69.55 90
NA 1865-10-26 00:00:00 TS 33.00 -68.60 90
NA 03:00:00 TS 33.25 -67.56 90
NA 06:00:00 TS 33.50 -66.50 90
NA 09:00:00 TS 33.70 -65.50 87
NA 12:00:00 TS 33.90 -64.50 85
NA 15:00:00 TS 34.15 -63.45 85
NA 18:00:00 TS 34.40 -62.40 85
NA 21:00:00 TS 34.57 -61.46 85
NA 1865-10-27 00:00:00 TS 34.80 -60.40 85
NA 03:00:00 TS 35.17 -59.03 85
NA 06:00:00 TS 35.60 -57.50 85
NA 09:00:00 TS 36.00 -56.01 82
NA 12:00:00 TS 36.40 -54.50 80
NA 15:00:00 TS 36.80 -53.00 80
NA 18:00:00 TS 37.20 -51.50 80
NA 21:00:00 TS 37.36 -50.19 77
NA 1865-10-28 00:00:00 TS 38.00 -48.50 75
NA 03:00:00 TS 39.68 -45.84 75
NA 06:00:00 TS 41.80 -42.50 75
NA 09:00:00 TS 43.76 -38.90 72
NA 12:00:00 ET 45.50 -35.00 70
NA 15:00:00 ET 46.75 -31.00 70
NA 18:00:00 ET 47.80 -27.00 70
NA 21:00:00 ET 48.87 -22.98 65
NA 1865-10-29 00:00:00 ET 50.00 -19.00 60
NA 03:00:00 ET 51.24 -14.71 60
NA 06:00:00 ET 52.50 -11.00 60
NA 09:00:00 ET 53.82 -8.40 60
NA 12:00:00 ET 55.00 -7.00 60 972
NA 15:00:00 ET 55.74 -6.68 57
NA 18:00:00 ET 56.30 -7.00 55
NA 21:00:00 ET 56.90 -7.00 52
NA 1865-10-30 00:00:00 ET 57.50 -7.00 50
NA 03:00:00 ET 58.15 -7.00 47
NA 06:00:00 ET 58.80 -7.00 45
NA 09:00:00 ET 59.41 -7.00 42
NA 12:00:00 ET 60.00 -7.00 40

Source Information

Agency Information
USA
TOKYO
CMA
HKO
NEWDELHI
REUNION
BOM
NADI
WELLINGTON
DS824
TD9636
TD9635
NEUMANN
MLC

All available IBTrACS Data

SEASON BASIN SUBBASIN ISO_TIME_________ NATURE LAT LON DIST2LAND LANDFALL IFLAG USA SSHS MLC LAT MLC LON MLC CLASS MLC WIND MLC PRES STORM SPEED STORM DIR
Year degrees north degrees east km km 1 degrees north degrees east kts mb kts degrees
1865 NA NA 1865-10-24 06:00:00 TS 28.10 -79.80 72 72 _____________O -1 28.10 -79.80 HU 90 10 47
1865 NA NA 09:00:00 TS 28.45 -79.37 107 107 _____________P -1 28.42 -79.35 HU 90 11 49
1865 NA NA 12:00:00 TS 28.80 -78.90 159 159 _____________O -1 28.80 -78.90 HU 90 12 46
1865 NA NA 15:00:00 TS 29.26 -78.43 222 222 _____________P -1 29.26 -78.43 HU 90 13 44
1865 NA NA 18:00:00 TS 29.70 -77.90 285 285 _____________O -1 29.70 -77.90 HU 90 12 52
1865 NA NA 21:00:00 TS 30.03 -77.31 352 352 _____________P -1 30.03 -77.31 HU 90 13 62
1865 NA NA 1865-10-25 00:00:00 TS 30.30 -76.60 400 400 _____________O -1 30.30 -76.60 HU 90 14 70
1865 NA NA 03:00:00 TS 30.53 -75.77 431 426 _____________P -1 30.53 -75.77 HU 90 16 72
1865 NA NA 06:00:00 TS 30.80 -74.80 457 457 _____________O -1 30.80 -74.80 HU 90 19 68
1865 NA NA 09:00:00 TS 31.22 -73.72 469 465 _____________P -1 31.22 -73.72 HU 90 21 64
1865 NA NA 12:00:00 TS 31.70 -72.60 492 492 _____________O -1 31.70 -72.60 HU 90 21 63
1865 NA NA 15:00:00 TS 32.19 -71.53 536 536 _____________P -1 32.19 -71.53 HU 90 20 63
1865 NA NA 18:00:00 TS 32.60 -70.50 581 581 _____________O -1 32.60 -70.50 HU 90 18 69
1865 NA NA 21:00:00 TS 32.83 -69.55 643 643 _____________P -1 32.83 -69.55 HU 90 16 76
1865 NA NA 1865-10-26 00:00:00 TS 33.00 -68.60 704 704 _____________O -1 33.00 -68.60 HU 90 17 76
1865 NA NA 03:00:00 TS 33.25 -67.56 778 778 _____________P -1 33.25 -67.56 HU 90 18 74
1865 NA NA 06:00:00 TS 33.50 -66.50 860 860 _____________O -1 33.50 -66.50 HU 90 18 75
1865 NA NA 09:00:00 TS 33.70 -65.50 940 940 _____________P -1 33.70 -65.50 HU 87 17 76
1865 NA NA 12:00:00 TS 33.90 -64.50 992 991 _____________O -1 33.90 -64.50 HU 85 18 75
1865 NA NA 15:00:00 TS 34.15 -63.45 1018 1014 _____________P -1 34.15 -63.45 HU 85 18 74
1865 NA NA 18:00:00 TS 34.40 -62.40 1043 1038 _____________O -1 34.40 -62.40 HU 85 17 76
1865 NA NA 21:00:00 TS 34.57 -61.46 1043 1043 _____________P -1 34.57 -61.46 HU 85 17 76
1865 NA NA 1865-10-27 00:00:00 TS 34.80 -60.40 1055 1052 _____________O -1 34.80 -60.40 HU 85 21 73
1865 NA NA 03:00:00 TS 35.17 -59.03 1069 1069 _____________P -1 35.17 -59.03 HU 85 25 71
1865 NA NA 06:00:00 TS 35.60 -57.50 1102 1102 _____________O -1 35.60 -57.50 HU 85 26 71
1865 NA NA 09:00:00 TS 36.00 -56.01 1109 1105 _____________P -1 36.00 -56.01 HU 82 26 72
1865 NA NA 12:00:00 TS 36.40 -54.50 1123 1090 _____________O -1 36.40 -54.50 HU 80 25 72
1865 NA NA 15:00:00 TS 36.80 -53.00 1090 1052 _____________P -1 36.80 -53.00 HU 80 25 72
1865 NA NA 18:00:00 TS 37.20 -51.50 1054 1050 _____________O -1 37.20 -51.50 HU 80 23 76
1865 NA NA 21:00:00 TS 37.36 -50.19 1052 1035 _____________P -1 37.36 -50.19 HU 77 25 71
1865 NA NA 1865-10-28 00:00:00 TS 38.00 -48.50 1030 970 _____________O -1 38.00 -48.50 HU 75 41 56
1865 NA NA 03:00:00 TS 39.68 -45.84 971 963 _____________P -1 39.68 -45.84 HU 75 60 51
1865 NA NA 06:00:00 TS 41.80 -42.50 999 999 _____________O -1 41.80 -42.50 HU 75 66 52
1865 NA NA 09:00:00 TS 43.76 -38.90 1135 1135 _____________P -1 43.76 -38.90 HU 72 65 56
1865 NA NA 12:00:00 ET 45.50 -35.00 1356 1356 _____________O -1 45.50 -35.00 EX 70 63 62
1865 NA NA 15:00:00 ET 46.75 -31.00 1580 1280 _____________P -1 46.75 -31.00 EX 70 59 67
1865 NA NA 18:00:00 ET 47.80 -27.00 1262 962 _____________O -1 47.80 -27.00 EX 70 58 69
1865 NA NA 21:00:00 ET 48.87 -22.98 944 649 _____________P -1 48.87 -22.98 EX 65 57 67
1865 NA NA 1865-10-29 00:00:00 ET 50.00 -19.00 632 316 _____________O -1 50.00 -19.00 EX 60 58 66
1865 NA NA 03:00:00 ET 51.24 -14.71 303 57 _____________P -1 51.24 -14.71 EX 60 56 63
1865 NA NA 06:00:00 ET 52.50 -11.00 52 0 _____________O -1 52.50 -11.00 EX 60 46 56
1865 NA NA 09:00:00 ET 53.82 -8.40 0 0 _____________P -1 53.82 -8.40 EX 60 34 43
1865 NA NA 12:00:00 ET 55.00 -7.00 0 0 _____________O -1 55.00 -7.00 EX 60 972 22 27
1865 NA NA 15:00:00 ET 55.74 -6.68 54 54 _____________P -1 55.74 -6.68 EX 57 13 1
1865 NA NA 18:00:00 ET 56.30 -7.00 65 48 _____________O -1 56.30 -7.00 EX 55 12 351
1865 NA NA 21:00:00 ET 56.90 -7.00 50 11 _____________P -1 56.90 -7.00 EX 52 12 359
1865 NA NA 1865-10-30 00:00:00 ET 57.50 -7.00 16 0 _____________O -1 57.50 -7.00 EX 50 12 0
1865 NA NA 03:00:00 ET 58.15 -7.00 5 5 _____________P -1 58.15 -7.00 EX 47 13 1
1865 NA NA 06:00:00 ET 58.80 -7.00 52 52 _____________O -1 58.80 -7.00 EX 45 13 0
1865 NA NA 09:00:00 ET 59.41 -7.00 114 114 _____________P -1 59.41 -7.00 EX 42 12 1
1865 NA NA 12:00:00 ET 60.00 -7.00 179 _____________O -1 60.00 -7.00 EX 40 12 3